createdAt,value
2022-12-14T00:02:36.118Z,23.38
2022-12-14T00:05:21.518Z,23.39
2022-12-14T00:08:06.320Z,24.10
2022-12-14T00:10:51.363Z,23.58
2022-12-14T00:13:36.103Z,23.35
2022-12-14T00:16:21.145Z,22.95
2022-12-14T00:19:06.194Z,23.45
2022-12-14T00:21:50.936Z,22.96
2022-12-14T00:24:35.965Z,22.90
2022-12-14T00:27:20.955Z,23.50
2022-12-14T00:30:05.887Z,23.43
2022-12-14T00:32:50.709Z,25.09
2022-12-14T00:35:35.555Z,24.92
2022-12-14T00:38:20.472Z,25.04
2022-12-14T00:41:05.326Z,25.36
2022-12-14T00:43:50.268Z,25.13
2022-12-14T00:46:35.256Z,25.83
2022-12-14T00:49:20.127Z,25.26
2022-12-14T00:52:04.891Z,25.85
2022-12-14T00:54:49.855Z,26.32
2022-12-14T00:57:34.869Z,26.95
2022-12-14T01:00:19.875Z,27.17
2022-12-14T01:03:04.653Z,26.92
2022-12-14T01:05:49.665Z,27.00
2022-12-14T01:08:34.576Z,26.58
2022-12-14T01:11:19.398Z,26.53
2022-12-14T01:14:04.397Z,26.92
2022-12-14T01:16:49.197Z,26.75
2022-12-14T01:19:34.284Z,26.48
2022-12-14T01:22:19.145Z,26.33
2022-12-14T01:25:04.084Z,26.81
2022-12-14T01:27:49.019Z,26.44
2022-12-14T01:30:33.876Z,26.99
2022-12-14T01:33:18.883Z,25.89
2022-12-14T01:36:03.756Z,25.69
2022-12-14T01:38:48.800Z,26.68
2022-12-14T01:41:33.582Z,27.79
2022-12-14T01:44:18.607Z,26.51
2022-12-14T01:47:08.803Z,27.21
2022-12-14T01:49:57.486Z,26.78
2022-12-14T01:52:42.478Z,27.39
2022-12-14T01:55:27.344Z,27.52
2022-12-14T01:58:12.239Z,28.14
2022-12-14T02:00:57.160Z,29.64
2022-12-14T02:03:41.998Z,29.08
2022-12-14T02:06:26.955Z,28.65
2022-12-14T02:09:11.779Z,28.97
2022-12-14T02:11:56.820Z,28.65
2022-12-14T02:14:41.767Z,28.74
2022-12-14T02:17:26.649Z,28.56
2022-12-14T02:20:11.566Z,28.83
2022-12-14T02:22:56.447Z,29.97
2022-12-14T02:25:41.425Z,31.21
2022-12-14T02:28:26.274Z,30.41
2022-12-14T02:31:11.374Z,30.78
2022-12-14T02:33:56.203Z,30.91
2022-12-14T02:36:40.987Z,30.38
2022-12-14T02:39:25.766Z,31.43
2022-12-14T02:42:10.783Z,30.29
2022-12-14T02:44:55.711Z,30.13
2022-12-14T02:47:40.713Z,30.04
2022-12-14T02:50:25.777Z,30.27
2022-12-14T02:53:10.706Z,29.65
2022-12-14T02:55:55.692Z,30.21
2022-12-14T02:58:40.512Z,29.51
2022-12-14T03:01:25.467Z,29.68
2022-12-14T03:04:10.890Z,28.81
2022-12-14T03:06:56.368Z,29.43
2022-12-14T03:09:41.405Z,29.86
2022-12-14T03:12:26.266Z,29.15
2022-12-14T03:15:11.234Z,29.70
2022-12-14T03:17:56.020Z,29.90
2022-12-14T03:20:40.841Z,30.29
2022-12-14T03:23:26.019Z,29.45
2022-12-14T03:26:11.194Z,29.63
2022-12-14T03:28:56.081Z,29.64
2022-12-14T03:31:40.913Z,28.92
2022-12-14T03:34:25.759Z,30.32
2022-12-14T03:37:10.666Z,30.07
2022-12-14T03:39:55.511Z,29.58
2022-12-14T03:42:40.455Z,29.59
2022-12-14T03:45:25.587Z,30.72
2022-12-14T03:48:10.514Z,30.85
2022-12-14T03:50:55.550Z,31.91
2022-12-14T03:53:40.648Z,31.33
2022-12-14T03:56:25.581Z,31.21
2022-12-14T03:59:10.563Z,30.89
2022-12-14T04:01:55.536Z,31.06
2022-12-14T04:04:40.881Z,30.86
2022-12-14T04:07:25.724Z,31.66
2022-12-14T04:10:10.662Z,32.47
2022-12-14T04:12:55.681Z,31.80
2022-12-14T04:15:40.555Z,31.55
2022-12-14T04:18:25.521Z,30.75
2022-12-14T04:21:10.281Z,30.15
2022-12-14T04:23:55.227Z,30.37
2022-12-14T04:26:40.077Z,30.19
2022-12-14T04:29:24.986Z,29.71
2022-12-14T04:32:09.906Z,29.64
2022-12-14T04:34:55.253Z,28.09
2022-12-14T04:37:40.258Z,28.03
2022-12-14T04:40:25.177Z,26.80
2022-12-14T04:43:10.196Z,25.56
2022-12-14T04:45:55.183Z,26.37
2022-12-14T04:48:40.049Z,25.17
2022-12-14T04:51:24.838Z,25.27
2022-12-14T04:54:09.724Z,25.16
2022-12-14T04:56:54.648Z,25.16
2022-12-14T04:59:39.481Z,25.43
2022-12-14T05:02:24.721Z,25.92
2022-12-14T05:05:10.052Z,25.05
2022-12-14T05:07:55.031Z,25.99
2022-12-14T05:10:39.757Z,27.83
2022-12-14T05:13:24.733Z,27.11
2022-12-14T05:16:09.954Z,27.86
2022-12-14T05:18:55.048Z,28.94
2022-12-14T05:21:39.796Z,29.14
2022-12-14T05:24:24.761Z,31.49
2022-12-14T05:27:09.659Z,32.69
2022-12-14T05:29:54.511Z,33.01
2022-12-14T05:32:39.510Z,33.01
2022-12-14T05:35:24.436Z,33.07
2022-12-14T05:38:09.400Z,31.76
2022-12-14T05:40:54.238Z,31.11
2022-12-14T05:43:39.325Z,30.66
2022-12-14T05:46:24.188Z,28.55
2022-12-14T05:49:08.968Z,27.21
2022-12-14T05:51:54.001Z,25.65
2022-12-14T05:54:38.845Z,25.12
2022-12-14T05:57:23.760Z,24.75
2022-12-14T06:00:09.853Z,23.13
2022-12-14T06:02:55.187Z,21.78
2022-12-14T06:05:39.986Z,20.00
2022-12-14T06:08:25.054Z,20.84
2022-12-14T06:11:10.044Z,21.01
2022-12-14T06:13:54.922Z,26.37
2022-12-14T06:16:39.775Z,26.61
2022-12-14T06:19:24.767Z,30.28
2022-12-14T06:22:09.644Z,30.96
2022-12-14T06:24:54.372Z,30.85
2022-12-14T06:27:39.165Z,31.24
2022-12-14T06:30:24.229Z,30.88
2022-12-14T06:33:09.219Z,31.04
2022-12-14T06:35:54.176Z,28.64
2022-12-14T06:38:38.960Z,26.95
2022-12-14T06:41:23.871Z,24.40
2022-12-14T06:44:08.678Z,24.40
2022-12-14T06:46:53.627Z,25.38
2022-12-14T06:49:38.901Z,24.93
2022-12-14T06:52:26.893Z,24.74
2022-12-14T06:55:12.269Z,23.37
2022-12-14T06:57:57.081Z,22.85
2022-12-14T07:00:41.986Z,23.03
2022-12-14T07:03:27.223Z,21.41
2022-12-14T07:06:12.625Z,21.27
2022-12-14T07:08:57.521Z,21.53
2022-12-14T07:11:42.396Z,22.44
2022-12-14T07:14:27.398Z,21.62
2022-12-14T07:17:12.330Z,21.95
2022-12-14T07:19:57.294Z,21.96
2022-12-14T07:22:42.087Z,22.27
2022-12-14T07:25:34.074Z,22.18
2022-12-14T07:28:18.961Z,21.70
2022-12-14T07:31:03.853Z,21.83
2022-12-14T07:33:48.671Z,22.25
2022-12-14T07:36:33.662Z,24.01
2022-12-14T07:39:18.639Z,24.17
2022-12-14T07:42:03.501Z,26.37
2022-12-14T07:44:48.326Z,26.74
2022-12-14T07:47:33.360Z,26.04
2022-12-14T07:50:18.241Z,28.06
2022-12-14T07:53:03.201Z,27.13
2022-12-14T07:55:48.137Z,27.92
2022-12-14T07:58:32.907Z,27.32
2022-12-14T08:01:17.832Z,26.04
2022-12-14T08:04:02.818Z,24.38
2022-12-14T08:06:47.924Z,22.32
2022-12-14T08:09:32.875Z,21.85
2022-12-14T08:12:18.117Z,19.19
2022-12-14T08:15:02.948Z,18.03
2022-12-14T08:17:47.734Z,17.70
2022-12-14T08:20:32.623Z,17.91
2022-12-14T08:23:17.639Z,17.47
2022-12-14T08:26:02.599Z,17.54
2022-12-14T08:28:47.711Z,18.34
2022-12-14T08:31:33.142Z,17.40
2022-12-14T08:34:18.291Z,17.44
2022-12-14T08:37:03.046Z,17.55
2022-12-14T08:39:49.584Z,17.77
2022-12-14T08:42:34.898Z,17.79
2022-12-14T08:45:20.015Z,18.60
2022-12-14T08:48:04.885Z,18.58
2022-12-14T08:50:50.032Z,18.14
2022-12-14T08:53:35.094Z,18.44
2022-12-14T08:56:20.025Z,18.57
2022-12-14T08:59:04.857Z,18.02
2022-12-14T09:01:50.253Z,18.07
2022-12-14T09:04:35.359Z,18.77
2022-12-14T09:07:20.376Z,19.16
2022-12-14T09:10:05.406Z,18.87
2022-12-14T09:12:50.340Z,18.52
2022-12-14T09:15:35.260Z,18.45
2022-12-14T09:18:20.073Z,17.72
2022-12-14T09:21:05.027Z,18.20
2022-12-14T09:23:55.600Z,18.19
2022-12-14T09:26:44.424Z,17.96
2022-12-14T09:29:32.370Z,17.36
2022-12-14T09:32:17.288Z,17.94
2022-12-14T09:35:02.155Z,17.05
2022-12-14T09:37:47.119Z,16.21
2022-12-14T09:40:32.225Z,16.17
2022-12-14T09:43:16.982Z,15.63
2022-12-14T09:46:02.012Z,15.37
2022-12-14T09:48:46.963Z,15.23
2022-12-14T09:51:31.986Z,15.38
2022-12-14T09:54:16.745Z,15.05
2022-12-14T09:57:01.672Z,14.78
2022-12-14T09:59:46.536Z,14.22
2022-12-14T10:02:32.589Z,13.98
2022-12-14T10:05:18.448Z,13.94
2022-12-14T10:08:03.276Z,13.81
2022-12-14T10:10:48.064Z,13.53
2022-12-14T10:13:33.328Z,13.50
2022-12-14T10:16:18.411Z,13.26
2022-12-14T10:19:03.648Z,13.00
2022-12-14T10:21:49.000Z,12.12
2022-12-14T10:24:33.786Z,12.02
2022-12-14T10:27:18.490Z,11.98
2022-12-14T10:30:03.462Z,12.22
2022-12-14T10:32:48.184Z,12.03
2022-12-14T10:35:34.515Z,11.68
2022-12-14T10:38:19.419Z,12.38
2022-12-14T10:41:04.276Z,11.89
2022-12-14T10:43:49.292Z,11.67
2022-12-14T10:46:34.104Z,11.62
2022-12-14T10:49:19.072Z,10.96
2022-12-14T10:52:03.817Z,10.99
2022-12-14T10:54:48.777Z,11.20
2022-12-14T10:57:33.582Z,11.13
2022-12-14T11:00:25.963Z,10.87
2022-12-14T11:03:11.090Z,11.32
2022-12-14T11:05:56.219Z,10.57
2022-12-14T11:08:41.129Z,10.94
2022-12-14T11:11:26.145Z,10.75
2022-12-14T11:14:11.004Z,10.52
2022-12-14T11:16:55.972Z,11.00
2022-12-14T11:19:41.223Z,10.43
2022-12-14T11:22:26.316Z,9.82
2022-12-14T11:25:11.160Z,10.05
2022-12-14T11:27:56.073Z,10.15
2022-12-14T11:30:41.075Z,10.33
2022-12-14T11:33:25.834Z,10.00
2022-12-14T11:36:10.911Z,10.03
2022-12-14T11:38:55.724Z,9.93
2022-12-14T11:41:40.666Z,9.84
2022-12-14T11:44:25.564Z,10.24
2022-12-14T11:47:10.433Z,10.28
2022-12-14T11:49:55.441Z,10.49
2022-12-14T11:52:40.335Z,10.16
2022-12-14T11:55:27.291Z,10.41
2022-12-14T11:58:12.150Z,11.00
2022-12-14T12:00:56.986Z,11.29
2022-12-14T12:03:41.921Z,11.15
2022-12-14T12:06:27.055Z,11.54
2022-12-14T12:09:12.019Z,11.72
2022-12-14T12:11:56.845Z,11.41
2022-12-14T12:14:41.836Z,11.44
2022-12-14T12:17:26.585Z,11.73
2022-12-14T12:20:11.576Z,11.89
2022-12-14T12:22:56.698Z,11.42
2022-12-14T12:25:41.572Z,11.63
2022-12-14T12:28:26.526Z,11.39
2022-12-14T12:31:11.858Z,12.66
2022-12-14T12:33:56.899Z,12.32
2022-12-14T12:37:02.732Z,12.64
2022-12-14T12:39:46.892Z,12.96
2022-12-14T12:42:31.949Z,12.53
2022-12-14T12:45:16.743Z,11.88
2022-12-14T12:48:01.781Z,11.35
2022-12-14T12:50:49.971Z,11.61
2022-12-14T12:53:34.969Z,11.75
2022-12-14T12:56:19.849Z,11.99
2022-12-14T12:59:04.862Z,11.47
2022-12-14T13:01:50.060Z,11.24
2022-12-14T13:04:35.310Z,10.72
2022-12-14T13:07:20.198Z,10.88
2022-12-14T13:10:06.113Z,10.46
2022-12-14T13:12:51.578Z,11.01
2022-12-14T13:15:37.732Z,11.71
2022-12-14T13:18:56.101Z,11.84
2022-12-14T13:21:27.743Z,11.41
2022-12-14T13:24:12.642Z,11.91
2022-12-14T13:26:58.463Z,11.51
2022-12-14T13:29:44.103Z,12.04
2022-12-14T13:32:32.332Z,13.02
2022-12-14T13:35:21.681Z,14.49
2022-12-14T13:38:06.598Z,14.22
2022-12-14T13:40:51.470Z,14.40
2022-12-14T13:43:36.318Z,14.33
2022-12-14T13:46:21.481Z,14.61
2022-12-14T13:49:06.178Z,13.47
2022-12-14T13:51:51.101Z,13.30
2022-12-14T13:54:35.965Z,13.42
2022-12-14T13:57:20.795Z,12.67
2022-12-14T14:00:05.654Z,12.45
2022-12-14T14:02:50.613Z,11.60
2022-12-14T14:05:36.006Z,11.58
2022-12-14T14:08:24.778Z,11.09
2022-12-14T14:11:36.792Z,11.47
2022-12-14T14:14:18.298Z,10.41
2022-12-14T14:17:03.139Z,10.92
2022-12-14T14:19:49.395Z,11.03
2022-12-14T14:22:34.724Z,10.94
2022-12-14T14:25:19.603Z,10.82
2022-12-14T14:28:04.537Z,11.44
2022-12-14T14:30:49.433Z,11.44
2022-12-14T14:33:49.744Z,11.09
2022-12-14T14:36:34.800Z,11.23
2022-12-14T14:39:47.048Z,11.52
2022-12-14T14:42:24.727Z,11.94
2022-12-14T14:45:09.721Z,12.26
2022-12-14T14:47:54.535Z,11.70
2022-12-14T14:50:39.548Z,12.12
2022-12-14T14:53:24.447Z,12.83
2022-12-14T14:56:09.319Z,13.13
2022-12-14T14:58:54.181Z,13.12
2022-12-14T15:01:39.204Z,13.20
2022-12-14T15:04:24.162Z,12.88
2022-12-14T15:07:09.353Z,13.78
2022-12-14T15:09:54.277Z,13.99
2022-12-14T15:12:39.185Z,13.37
2022-12-14T15:15:24.250Z,13.48
2022-12-14T15:18:09.077Z,12.79
2022-12-14T15:20:54.023Z,12.44
2022-12-14T15:23:38.932Z,13.13
2022-12-14T15:26:23.858Z,14.20
2022-12-14T15:29:08.686Z,15.13
2022-12-14T15:31:59.064Z,15.40
2022-12-14T15:34:44.785Z,14.95
2022-12-14T15:37:29.778Z,14.48
2022-12-14T15:40:14.657Z,14.07
2022-12-14T15:42:59.607Z,13.38
2022-12-14T15:45:44.632Z,13.35
2022-12-14T15:48:29.480Z,13.85
2022-12-14T15:51:14.285Z,15.27
2022-12-14T15:53:59.163Z,15.06
2022-12-14T15:56:44.042Z,14.65
2022-12-14T15:59:28.982Z,14.08
2022-12-14T16:02:13.866Z,12.76
2022-12-14T16:04:58.919Z,12.26
2022-12-14T16:07:43.797Z,11.77
2022-12-14T16:10:28.646Z,11.99
2022-12-14T16:13:13.742Z,11.14
2022-12-14T16:15:58.724Z,11.56
2022-12-14T16:18:43.679Z,11.19
2022-12-14T16:21:35.672Z,10.97
2022-12-14T16:24:20.523Z,11.94
2022-12-14T16:27:05.414Z,12.22
2022-12-14T16:29:50.261Z,12.37
2022-12-14T16:32:35.118Z,11.95
2022-12-14T16:35:19.957Z,12.53
2022-12-14T16:38:04.813Z,12.27
2022-12-14T16:40:49.744Z,12.32
2022-12-14T16:43:35.148Z,14.21
2022-12-14T16:46:20.157Z,14.83
2022-12-14T16:49:04.987Z,18.21
2022-12-14T16:52:06.973Z,17.01
2022-12-14T16:54:52.913Z,14.84
2022-12-14T16:57:39.361Z,14.05
2022-12-14T17:00:24.596Z,14.82
2022-12-14T17:03:10.008Z,14.58
2022-12-14T17:05:55.454Z,15.81
2022-12-14T17:08:40.374Z,14.52
2022-12-14T17:11:25.188Z,13.06
2022-12-14T17:14:10.189Z,14.84
2022-12-14T17:16:55.284Z,14.12
2022-12-14T17:19:40.566Z,12.53
2022-12-14T17:22:25.389Z,11.61
2022-12-14T17:25:10.323Z,12.16
2022-12-14T17:27:55.281Z,12.54
2022-12-14T17:30:40.271Z,12.79
2022-12-14T17:33:25.246Z,12.88
2022-12-14T17:36:10.022Z,12.13
2022-12-14T17:38:54.956Z,12.77
2022-12-14T17:41:39.840Z,12.14
2022-12-14T17:44:24.881Z,12.15
2022-12-14T17:47:09.674Z,12.80
2022-12-14T17:49:54.566Z,12.10
2022-12-14T17:52:39.349Z,12.21
2022-12-14T17:55:24.179Z,12.28
2022-12-14T17:58:09.144Z,12.95
2022-12-14T18:00:54.004Z,14.60
2022-12-14T18:03:38.996Z,16.87
2022-12-14T18:06:23.831Z,15.42
2022-12-14T18:09:08.796Z,15.23
2022-12-14T18:12:22.183Z,15.05
2022-12-14T18:14:58.569Z,15.00
2022-12-14T18:17:43.505Z,16.19
2022-12-14T18:20:29.435Z,16.07
2022-12-14T18:23:14.340Z,15.85
2022-12-14T18:25:59.286Z,17.22
2022-12-14T18:28:44.228Z,17.12
2022-12-14T18:31:29.359Z,16.37
2022-12-14T18:34:14.493Z,16.73
2022-12-14T18:36:59.494Z,16.93
2022-12-14T18:39:44.420Z,16.97
2022-12-14T18:42:34.365Z,17.92
2022-12-14T18:45:19.305Z,18.01
2022-12-14T18:48:04.090Z,16.93
2022-12-14T18:50:49.751Z,15.87
2022-12-14T18:53:35.167Z,14.90
2022-12-14T18:56:20.358Z,15.27
2022-12-14T18:59:05.364Z,15.18
2022-12-14T19:01:50.198Z,14.58
2022-12-14T19:04:35.517Z,13.68
2022-12-14T19:07:20.385Z,13.42
2022-12-14T19:10:05.232Z,13.38
2022-12-14T19:12:50.147Z,13.66
2022-12-14T19:15:35.189Z,13.02
2022-12-14T19:18:20.128Z,12.63
2022-12-14T19:21:04.922Z,13.43
2022-12-14T19:23:49.934Z,12.67
2022-12-14T19:26:34.721Z,13.49
2022-12-14T19:29:19.716Z,14.32
2022-12-14T19:32:05.802Z,14.86
2022-12-14T19:34:50.998Z,15.08
2022-12-14T19:37:35.788Z,15.61
2022-12-14T19:40:20.605Z,15.42
2022-12-14T19:43:05.586Z,14.80
2022-12-14T19:45:50.378Z,13.35
2022-12-14T19:48:35.335Z,12.83
2022-12-14T19:51:20.207Z,12.65
2022-12-14T19:54:05.232Z,12.56
2022-12-14T19:56:50.176Z,12.94
2022-12-14T19:59:35.083Z,12.26
2022-12-14T20:02:20.033Z,12.45
2022-12-14T20:05:05.327Z,13.42
2022-12-14T20:07:50.277Z,15.53
2022-12-14T20:10:35.087Z,16.22
2022-12-14T20:13:20.109Z,15.95
2022-12-14T20:16:04.998Z,16.05
2022-12-14T20:18:50.259Z,15.19
2022-12-14T20:21:35.005Z,14.64
2022-12-14T20:24:19.870Z,14.53
2022-12-14T20:27:04.815Z,14.07
2022-12-14T20:29:49.745Z,13.78
2022-12-14T20:32:34.624Z,12.65
2022-12-14T20:35:19.446Z,12.14
2022-12-14T20:38:04.363Z,12.33
2022-12-14T20:40:49.261Z,11.76
2022-12-14T20:43:34.182Z,11.47
2022-12-14T20:46:19.120Z,10.94
2022-12-14T20:49:03.944Z,10.71
2022-12-14T20:51:48.735Z,10.68
2022-12-14T20:54:33.690Z,10.87
2022-12-14T20:57:18.530Z,10.88
2022-12-14T21:00:03.369Z,11.62
2022-12-14T21:02:48.347Z,11.85
2022-12-14T21:05:34.585Z,11.52
2022-12-14T21:08:19.689Z,11.50
2022-12-14T21:11:04.613Z,12.40
2022-12-14T21:13:49.405Z,12.60
2022-12-14T21:16:34.542Z,13.02
2022-12-14T21:19:19.387Z,12.99
2022-12-14T21:22:04.239Z,13.02
2022-12-14T21:25:06.099Z,13.30
2022-12-14T21:27:51.503Z,12.95
2022-12-14T21:30:36.458Z,13.20
2022-12-14T21:33:21.317Z,13.33
2022-12-14T21:36:06.274Z,14.18
2022-12-14T21:38:51.014Z,14.06
2022-12-14T21:41:35.903Z,14.67
2022-12-14T21:44:20.689Z,14.33
2022-12-14T21:47:05.593Z,14.32
2022-12-14T21:49:50.361Z,14.57
2022-12-14T21:52:35.221Z,14.85
2022-12-14T21:55:20.130Z,14.18
2022-12-14T21:58:04.963Z,14.49
2022-12-14T22:00:49.999Z,14.28
2022-12-14T22:03:35.345Z,13.79
2022-12-14T22:06:20.481Z,14.06
2022-12-14T22:09:05.379Z,14.02
2022-12-14T22:11:50.309Z,14.49
2022-12-14T22:14:35.080Z,14.74
2022-12-14T22:17:19.932Z,14.64
2022-12-14T22:20:04.833Z,14.78
2022-12-14T22:22:49.726Z,15.11
2022-12-14T22:25:34.540Z,14.30
2022-12-14T22:28:19.385Z,13.75
2022-12-14T22:31:04.333Z,13.52
2022-12-14T22:33:49.773Z,14.56
2022-12-14T22:36:35.322Z,14.19
2022-12-14T22:39:20.163Z,13.81
2022-12-14T22:42:05.184Z,14.07
2022-12-14T22:44:50.021Z,14.24
2022-12-14T22:47:34.822Z,13.97
2022-12-14T22:50:19.861Z,13.16
2022-12-14T22:53:04.639Z,13.99
2022-12-14T22:55:49.716Z,13.58
2022-12-14T22:58:34.968Z,14.28
2022-12-14T23:01:19.937Z,14.46
2022-12-14T23:04:05.050Z,14.40
2022-12-14T23:06:50.318Z,15.73
2022-12-14T23:09:35.426Z,15.50
2022-12-14T23:12:22.097Z,13.07
2022-12-14T23:15:07.262Z,11.95
2022-12-14T23:17:52.087Z,12.80
2022-12-14T23:20:37.074Z,12.75
2022-12-14T23:23:21.903Z,12.72
2022-12-14T23:26:06.880Z,12.55
2022-12-14T23:28:51.805Z,12.66
2022-12-14T23:31:36.688Z,12.41
2022-12-14T23:34:21.579Z,13.16
2022-12-14T23:37:06.431Z,13.10
2022-12-14T23:39:51.404Z,12.96
2022-12-14T23:42:36.339Z,12.99
2022-12-14T23:45:21.208Z,12.56
2022-12-14T23:48:06.087Z,12.98
2022-12-14T23:50:50.874Z,12.76
2022-12-14T23:53:35.925Z,12.88
2022-12-14T23:56:20.828Z,12.41
2022-12-14T23:59:09.182Z,12.75
